KJTC

Springerville Municipal Airport

Springerville, Arizona, USA
METAR KJTC 191935Z AUTO 33007KT 320V040 10SM CLR 15/03 A3031 RMK AO2
Observed Flight Rules
Oct-19 @ 19:35 UTC (16 minutes ago) Visual Flight Rules
Wind Visibility Clouds
330° at 7 knots 10 miles
  • Clear skies
Temperatures Readings
Current 15°C / 59°F
Dewpoint 3°C / 37°F
Humidity 45%
Altimeter 30.31" Hg
Pressure 1026 hPa
Elevation 2150
METAR KJTC 191935Z AUTO 33007KT 320V040 10SM CLR 15/03 A3031 RMK AO2
Observed Flight Rules
Oct-19 @ 19:35 UTC
(16 minutes ago)
VFR
Wind Visibility
330° at 7 knots 10 miles
Clouds
  • Clear skies
Temperature Dewpoint
15°C / 59°F 3°C / 37°F
Humidity Altimeter Pressure
45% 30.31" Hg 1026 hPa